createdAt,value
2018-08-25T00:00:54.917Z,11.40
2018-08-25T00:03:23.756Z,13.77
2018-08-25T00:05:52.568Z,11.77
2018-08-25T00:08:21.426Z,11.43
2018-08-25T00:10:50.267Z,13.50
2018-08-25T00:13:19.108Z,17.40
2018-08-25T00:15:47.956Z,13.37
2018-08-25T00:18:16.788Z,14.57
2018-08-25T00:20:45.631Z,10.20
2018-08-25T00:23:14.452Z,16.13
2018-08-25T00:25:43.234Z,12.10
2018-08-25T00:28:12.047Z,14.60
2018-08-25T00:30:46.310Z,12.40
2018-08-25T00:33:15.147Z,21.60
2018-08-25T00:35:44.000Z,14.10
2018-08-25T00:38:12.881Z,14.97
2018-08-25T00:40:41.888Z,14.30
2018-08-25T00:43:10.698Z,17.70
2018-08-25T00:45:39.561Z,12.40
2018-08-25T00:48:08.579Z,20.77
2018-08-25T00:50:37.441Z,10.30
2018-08-25T00:53:06.416Z,10.30
2018-08-25T00:55:35.235Z,14.63
2018-08-25T00:58:04.046Z,11.60
2018-08-25T01:00:32.921Z,12.87
2018-08-25T01:03:01.706Z,15.40
2018-08-25T01:05:30.538Z,14.93
2018-08-25T01:07:59.339Z,18.30
2018-08-25T01:10:28.220Z,12.87
2018-08-25T01:12:57.048Z,12.30
2018-08-25T01:15:25.924Z,15.10
2018-08-25T01:17:54.763Z,25.67
2018-08-25T01:20:23.626Z,12.80
2018-08-25T01:22:52.477Z,15.60
2018-08-25T01:25:21.396Z,13.40
2018-08-25T01:27:50.297Z,23.33
2018-08-25T01:30:19.116Z,17.00
2018-08-25T01:32:47.996Z,12.70
2018-08-25T01:35:17.024Z,12.73
2018-08-25T01:37:45.908Z,14.87
2018-08-25T01:40:14.768Z,14.40
2018-08-25T01:42:43.578Z,18.10
2018-08-25T01:45:12.455Z,12.07
2018-08-25T01:47:41.309Z,18.87
2018-08-25T01:50:10.236Z,12.80
2018-08-25T01:52:39.104Z,12.80
2018-08-25T01:55:07.955Z,13.20
2018-08-25T01:57:36.800Z,14.43
2018-08-25T02:00:06.806Z,14.90
2018-08-25T02:02:35.672Z,15.33
2018-08-25T02:05:04.549Z,13.80
2018-08-25T02:07:33.671Z,12.93
2018-08-25T02:10:02.580Z,18.67
2018-08-25T02:12:31.930Z,18.60
2018-08-25T02:15:00.828Z,17.33
2018-08-25T02:17:29.973Z,12.87
2018-08-25T02:19:58.767Z,17.30
2018-08-25T02:22:27.583Z,14.83
2018-08-25T02:24:56.457Z,15.53
2018-08-25T02:27:25.335Z,14.50
2018-08-25T02:29:54.167Z,21.63
2018-08-25T02:32:22.978Z,14.57
2018-08-25T02:34:51.841Z,17.67
2018-08-25T02:37:20.697Z,14.50
2018-08-25T02:39:49.551Z,25.47
2018-08-25T02:42:18.408Z,20.47
2018-08-25T02:44:47.276Z,15.80
2018-08-25T02:47:16.058Z,22.47
2018-08-25T02:49:44.925Z,16.93
2018-08-25T02:52:13.781Z,15.83
2018-08-25T02:54:42.625Z,14.10
2018-08-25T02:57:11.430Z,17.20
2018-08-25T02:59:40.270Z,16.90
2018-08-25T03:02:09.072Z,21.93
2018-08-25T03:04:37.891Z,17.07
2018-08-25T03:07:07.022Z,22.03
2018-08-25T03:09:35.936Z,14.20
2018-08-25T03:12:04.768Z,17.90
2018-08-25T03:14:33.644Z,20.50
2018-08-25T03:17:02.430Z,18.67
2018-08-25T03:19:31.269Z,22.77
2018-08-25T03:22:00.139Z,15.07
2018-08-25T03:24:28.985Z,19.20
2018-08-25T03:26:57.836Z,14.80
2018-08-25T03:29:26.707Z,20.00
2018-08-25T03:31:55.584Z,23.70
2018-08-25T03:34:24.431Z,18.53
2018-08-25T03:36:53.254Z,23.20
2018-08-25T03:39:22.042Z,19.20
2018-08-25T03:41:50.901Z,18.43
2018-08-25T03:44:19.778Z,19.50
2018-08-25T03:46:48.634Z,19.10
2018-08-25T03:49:17.455Z,20.37
2018-08-25T03:51:46.321Z,22.80
2018-08-25T03:54:15.212Z,31.40
2018-08-25T03:56:44.092Z,32.23
2018-08-25T03:59:12.976Z,26.70
2018-08-25T04:01:41.968Z,30.20
2018-08-25T04:04:10.765Z,27.70
2018-08-25T04:06:39.634Z,30.93
2018-08-25T04:09:11.872Z,35.83
2018-08-25T04:11:40.857Z,36.57
2018-08-25T04:14:10.984Z,28.53
2018-08-25T04:16:40.166Z,35.80
2018-08-25T04:19:13.820Z,34.50
2018-08-25T04:21:42.671Z,25.37
2018-08-25T04:24:11.550Z,31.43
2018-08-25T04:26:40.427Z,27.20
2018-08-25T04:29:09.412Z,26.67
2018-08-25T04:31:38.264Z,32.10
2018-08-25T04:34:07.132Z,29.00
2018-08-25T04:36:36.046Z,34.90
2018-08-25T04:39:08.122Z,32.53
2018-08-25T04:41:37.112Z,25.20
2018-08-25T04:44:06.009Z,27.10
2018-08-25T04:46:34.818Z,26.60
2018-08-25T04:49:03.668Z,29.70
2018-08-25T04:51:32.559Z,34.47
2018-08-25T04:54:01.516Z,36.83
2018-08-25T04:56:30.331Z,30.97
2018-08-25T04:58:59.203Z,34.20
2018-08-25T05:01:28.047Z,29.23
2018-08-25T05:03:56.887Z,32.03
2018-08-25T05:06:25.699Z,29.10
2018-08-25T05:08:54.552Z,29.00
2018-08-25T05:11:23.411Z,36.33
2018-08-25T05:13:52.293Z,29.00
2018-08-25T05:16:21.117Z,26.17
2018-08-25T05:18:49.996Z,30.73
2018-08-25T05:21:18.856Z,29.60
2018-08-25T05:23:47.696Z,33.27
2018-08-25T05:26:16.546Z,29.33
2018-08-25T05:28:45.471Z,30.70
2018-08-25T05:31:14.365Z,27.53
2018-08-25T05:33:43.218Z,35.07
2018-08-25T05:36:12.096Z,32.37
2018-08-25T05:38:40.994Z,30.13
2018-08-25T05:41:09.841Z,33.67
2018-08-25T05:43:38.798Z,42.30
2018-08-25T05:46:07.660Z,34.60
2018-08-25T05:48:36.481Z,37.47
2018-08-25T05:51:05.402Z,34.97
2018-08-25T05:53:34.299Z,41.00
2018-08-25T05:56:03.147Z,35.50
2018-08-25T05:58:32.017Z,41.40
2018-08-25T06:01:00.850Z,42.00
2018-08-25T06:03:29.679Z,35.53
2018-08-25T06:05:58.500Z,50.60
2018-08-25T06:08:27.361Z,45.67
2018-08-25T06:10:56.187Z,43.90
2018-08-25T06:13:24.999Z,46.67
2018-08-25T06:15:53.852Z,44.33
2018-08-25T06:18:22.685Z,48.70
2018-08-25T06:20:51.770Z,42.00
2018-08-25T06:23:20.566Z,40.80
2018-08-25T06:25:49.379Z,39.33
2018-08-25T06:28:18.294Z,39.03
2018-08-25T06:30:47.173Z,46.77
2018-08-25T06:33:16.033Z,45.50
2018-08-25T06:35:44.835Z,56.90
2018-08-25T06:38:13.672Z,54.90
2018-08-25T06:40:42.585Z,56.50
2018-08-25T06:43:11.431Z,68.17
2018-08-25T06:45:40.263Z,71.43
2018-08-25T06:48:09.157Z,65.97
2018-08-25T06:50:37.991Z,83.13
2018-08-25T06:53:06.931Z,78.20
2018-08-25T06:55:35.865Z,68.50
2018-08-25T06:58:04.899Z,63.93
2018-08-25T07:00:33.835Z,74.73
2018-08-25T07:03:02.709Z,59.13
2018-08-25T07:05:31.572Z,68.27
2018-08-25T07:08:01.320Z,68.70
2018-08-25T07:10:30.211Z,58.10
2018-08-25T07:12:59.135Z,60.73
2018-08-25T07:15:28.008Z,48.60
2018-08-25T07:17:56.846Z,54.60
2018-08-25T07:20:25.668Z,52.10
2018-08-25T07:22:54.466Z,53.10
2018-08-25T07:25:23.291Z,52.43
2018-08-25T07:27:52.132Z,49.73
2018-08-25T07:30:21.921Z,56.13
2018-08-25T07:32:50.749Z,58.27
2018-08-25T07:35:19.611Z,54.10
2018-08-25T07:37:48.425Z,55.57
2018-08-25T07:40:17.240Z,60.80
2018-08-25T07:42:46.094Z,59.77
2018-08-25T07:45:15.050Z,50.13
2018-08-25T07:47:43.891Z,56.00
2018-08-25T07:50:12.695Z,58.47
2018-08-25T07:52:41.583Z,55.13
2018-08-25T07:55:10.499Z,58.90
2018-08-25T07:57:39.361Z,55.40
2018-08-25T08:00:08.268Z,50.40
2018-08-25T08:02:37.153Z,62.93
2018-08-25T08:05:05.987Z,54.90
2018-08-25T08:07:34.873Z,53.50
2018-08-25T08:10:03.748Z,52.57
2018-08-25T08:12:32.603Z,54.70
2018-08-25T08:15:01.397Z,51.57
2018-08-25T08:17:30.252Z,58.87
2018-08-25T08:19:59.137Z,57.67
2018-08-25T08:22:27.942Z,62.00
2018-08-25T08:24:56.823Z,49.57
2018-08-25T08:27:25.676Z,52.00
2018-08-25T08:29:54.527Z,53.53
2018-08-25T08:32:23.368Z,47.00
2018-08-25T08:34:52.257Z,37.90
2018-08-25T08:37:21.091Z,44.77
2018-08-25T08:39:49.913Z,67.77
2018-08-25T08:42:18.855Z,43.50
2018-08-25T08:44:47.659Z,45.93
2018-08-25T08:47:16.501Z,37.83
2018-08-25T08:49:46.818Z,39.80
2018-08-25T08:52:14.303Z,42.10
2018-08-25T08:54:43.111Z,40.47
2018-08-25T08:57:11.960Z,29.43
2018-08-25T08:59:40.877Z,34.27
2018-08-25T09:02:10.066Z,33.43
2018-08-25T09:04:38.988Z,27.17
2018-08-25T09:07:07.845Z,23.77
2018-08-25T09:09:36.936Z,27.10
2018-08-25T09:12:05.882Z,33.43
2018-08-25T09:14:34.773Z,32.10
2018-08-25T09:17:03.684Z,29.13
2018-08-25T09:19:32.573Z,31.93
2018-08-25T09:22:01.411Z,33.57
2018-08-25T09:24:30.280Z,39.07
2018-08-25T09:26:59.115Z,29.00
2018-08-25T09:29:28.022Z,36.80
2018-08-25T09:31:56.904Z,28.90
2018-08-25T09:34:25.771Z,33.23
2018-08-25T09:36:54.707Z,36.50
2018-08-25T09:39:23.521Z,25.97
2018-08-25T09:41:52.445Z,27.73
2018-08-25T09:44:21.287Z,26.93
2018-08-25T09:46:50.152Z,25.50
2018-08-25T09:49:18.964Z,17.70
2018-08-25T09:51:47.885Z,23.40
2018-08-25T09:54:16.711Z,18.07
2018-08-25T09:56:45.601Z,23.67
2018-08-25T09:59:14.494Z,22.10
2018-08-25T10:01:48.778Z,21.20
2018-08-25T10:04:17.643Z,20.33
2018-08-25T10:06:46.529Z,22.03
2018-08-25T10:09:15.380Z,29.27
2018-08-25T10:11:44.249Z,16.93
2018-08-25T10:14:13.241Z,24.70
2018-08-25T10:16:42.208Z,16.13
2018-08-25T10:19:10.930Z,23.67
2018-08-25T10:21:39.727Z,21.93
2018-08-25T10:24:08.823Z,22.80
2018-08-25T10:26:37.852Z,18.70
2018-08-25T10:29:07.181Z,18.33
2018-08-25T10:31:35.958Z,20.93
2018-08-25T10:34:04.774Z,18.33
2018-08-25T10:36:33.632Z,16.83
2018-08-25T10:39:02.493Z,21.17
2018-08-25T10:41:31.334Z,19.30
2018-08-25T10:44:00.179Z,26.53
2018-08-25T10:46:29.044Z,16.97
2018-08-25T10:48:57.858Z,25.23
2018-08-25T10:51:26.701Z,18.37
2018-08-25T10:53:55.526Z,25.10
2018-08-25T10:56:24.393Z,22.10
2018-08-25T10:58:53.439Z,20.07
2018-08-25T11:01:22.273Z,22.50
2018-08-25T11:03:51.157Z,19.10
2018-08-25T11:06:20.037Z,16.10
2018-08-25T11:08:48.992Z,15.40
2018-08-25T11:11:17.861Z,16.90
2018-08-25T11:13:46.736Z,17.43
2018-08-25T11:16:15.568Z,20.40
2018-08-25T11:18:44.492Z,21.73
2018-08-25T11:21:13.357Z,20.10
2018-08-25T11:23:42.194Z,27.37
2018-08-25T11:26:11.037Z,20.80
2018-08-25T11:28:39.920Z,18.93
2018-08-25T11:31:08.826Z,18.63
2018-08-25T11:33:37.657Z,18.93
2018-08-25T11:36:06.556Z,29.57
2018-08-25T11:38:35.380Z,17.87
2018-08-25T11:41:04.167Z,20.00
2018-08-25T11:43:33.017Z,17.53
2018-08-25T11:46:01.838Z,12.93
2018-08-25T11:48:30.664Z,23.07
2018-08-25T11:50:59.525Z,15.53
2018-08-25T11:53:28.440Z,14.40
2018-08-25T11:55:57.315Z,21.00
2018-08-25T11:58:26.135Z,20.03
2018-08-25T12:00:55.025Z,16.17
2018-08-25T12:03:23.974Z,12.73
2018-08-25T12:05:52.820Z,15.27
2018-08-25T12:08:21.622Z,14.20
2018-08-25T12:10:50.452Z,13.40
2018-08-25T12:13:19.255Z,14.60
2018-08-25T12:15:48.071Z,11.00
2018-08-25T12:18:16.956Z,14.80
2018-08-25T12:20:45.805Z,13.80
2018-08-25T12:23:14.676Z,14.43
2018-08-25T12:25:43.491Z,14.83
2018-08-25T12:28:12.355Z,21.03
2018-08-25T12:30:41.246Z,14.17
2018-08-25T12:33:10.072Z,15.67
2018-08-25T12:35:39.192Z,22.27
2018-08-25T12:38:08.016Z,17.70
2018-08-25T12:40:36.894Z,18.40
2018-08-25T12:43:06.099Z,16.17
2018-08-25T12:45:34.927Z,17.00
2018-08-25T12:48:03.816Z,16.87
2018-08-25T12:50:32.676Z,17.50
2018-08-25T12:53:01.528Z,12.83
2018-08-25T12:55:30.447Z,11.60
2018-08-25T12:57:59.364Z,12.73
2018-08-25T13:00:28.168Z,18.30
2018-08-25T13:02:57.016Z,18.50
2018-08-25T13:05:26.161Z,22.80
2018-08-25T13:07:55.044Z,18.40
2018-08-25T13:10:23.950Z,15.50
2018-08-25T13:12:52.803Z,21.93
2018-08-25T13:15:21.624Z,20.53
2018-08-25T13:17:50.480Z,22.87
2018-08-25T13:20:19.365Z,14.23
2018-08-25T13:22:48.221Z,12.80
2018-08-25T13:25:17.085Z,15.07
2018-08-25T13:27:45.956Z,13.00
2018-08-25T13:30:14.811Z,26.03
2018-08-25T13:32:43.663Z,12.40
2018-08-25T13:35:12.639Z,12.50
2018-08-25T13:37:41.750Z,20.67
2018-08-25T13:40:10.791Z,21.77
2018-08-25T13:42:39.948Z,14.80
2018-08-25T13:45:08.799Z,14.50
2018-08-25T13:47:38.976Z,15.17
2018-08-25T13:50:07.860Z,10.27
2018-08-25T13:52:36.782Z,17.80
2018-08-25T13:55:05.788Z,17.90
2018-08-25T13:57:34.706Z,11.67
2018-08-25T14:00:03.570Z,14.70
2018-08-25T14:02:32.441Z,14.70
2018-08-25T14:05:01.281Z,11.60
2018-08-25T14:07:30.723Z,13.00
2018-08-25T14:09:59.841Z,14.40
2018-08-25T14:12:28.705Z,17.60
2018-08-25T14:14:57.556Z,12.47
2018-08-25T14:17:26.411Z,16.80
2018-08-25T14:19:55.351Z,10.50
2018-08-25T14:22:24.149Z,13.37
2018-08-25T14:24:52.981Z,13.20
2018-08-25T14:27:21.804Z,20.83
2018-08-25T14:29:50.674Z,12.47
2018-08-25T14:32:19.496Z,14.03
2018-08-25T14:34:48.310Z,11.10
2018-08-25T14:37:17.144Z,13.60
2018-08-25T14:39:46.002Z,18.30
2018-08-25T14:42:14.840Z,13.23
2018-08-25T14:44:43.769Z,10.43
2018-08-25T14:47:12.652Z,12.90
2018-08-25T14:49:41.472Z,11.90
2018-08-25T14:52:10.369Z,11.97
2018-08-25T14:54:39.197Z,14.13
2018-08-25T14:57:08.031Z,14.87
2018-08-25T14:59:36.867Z,18.17
2018-08-25T15:02:06.403Z,19.20
2018-08-25T15:04:36.332Z,30.60
2018-08-25T15:07:07.371Z,20.67
2018-08-25T15:09:36.392Z,20.20
2018-08-25T15:12:05.592Z,22.27
2018-08-25T15:14:35.309Z,21.20
2018-08-25T15:17:04.900Z,11.43
2018-08-25T15:19:34.356Z,14.70
2018-08-25T15:22:03.203Z,12.43
2018-08-25T15:24:32.043Z,23.20
2018-08-25T15:27:00.893Z,14.07
2018-08-25T15:29:29.745Z,17.50
2018-08-25T15:31:58.540Z,17.93
2018-08-25T15:34:27.357Z,11.57
2018-08-25T15:36:56.168Z,13.60
2018-08-25T15:39:25.090Z,16.30
2018-08-25T15:41:53.933Z,18.30
2018-08-25T15:44:22.789Z,12.50
2018-08-25T15:46:51.629Z,20.93
2018-08-25T15:49:20.439Z,15.37
2018-08-25T15:51:49.296Z,10.60
2018-08-25T15:54:18.084Z,9.60
2018-08-25T15:56:46.977Z,9.33
2018-08-25T15:59:15.787Z,9.03
2018-08-25T16:01:44.665Z,8.00
2018-08-25T16:04:13.801Z,7.90
2018-08-25T16:06:42.628Z,10.50
2018-08-25T16:09:11.881Z,10.17
2018-08-25T16:11:40.934Z,7.83
2018-08-25T16:14:09.659Z,13.43
2018-08-25T16:16:38.598Z,8.07
2018-08-25T16:19:07.755Z,11.40
2018-08-25T16:21:36.615Z,9.43
2018-08-25T16:24:05.456Z,8.80
2018-08-25T16:26:34.332Z,12.13
2018-08-25T16:29:03.172Z,10.87
2018-08-25T16:31:32.044Z,8.00
2018-08-25T16:34:00.905Z,9.37
2018-08-25T16:36:29.763Z,9.13
2018-08-25T16:38:58.551Z,8.33
2018-08-25T16:41:27.414Z,9.47
2018-08-25T16:43:56.231Z,8.50
2018-08-25T16:46:25.451Z,7.90
2018-08-25T16:48:54.399Z,7.43
2018-08-25T16:51:23.211Z,9.83
2018-08-25T16:53:52.063Z,8.00
2018-08-25T16:56:20.866Z,24.77
2018-08-25T16:58:49.708Z,9.10
2018-08-25T17:01:18.564Z,8.07
2018-08-25T17:03:47.404Z,8.10
2018-08-25T17:06:16.226Z,10.00
2018-08-25T17:08:46.071Z,7.10
2018-08-25T17:11:14.949Z,13.00
2018-08-25T17:13:43.846Z,7.93
2018-08-25T17:16:12.782Z,11.27
2018-08-25T17:18:41.649Z,8.00
2018-08-25T17:21:10.479Z,9.87
2018-08-25T17:23:39.283Z,10.17
2018-08-25T17:26:08.115Z,9.20
2018-08-25T17:28:37.009Z,8.63
2018-08-25T17:31:06.028Z,7.70
2018-08-25T17:33:34.875Z,7.80
2018-08-25T17:36:03.719Z,8.67
2018-08-25T17:38:32.826Z,10.33
2018-08-25T17:41:01.664Z,9.10
2018-08-25T17:43:30.532Z,9.57
2018-08-25T17:45:59.551Z,8.07
2018-08-25T17:48:28.431Z,9.67
2018-08-25T17:50:57.516Z,11.10
2018-08-25T17:53:26.527Z,10.40
2018-08-25T17:55:55.445Z,9.90
2018-08-25T17:58:24.306Z,13.23
2018-08-25T18:00:53.188Z,8.23
2018-08-25T18:03:22.052Z,8.40
2018-08-25T18:05:50.914Z,8.80
2018-08-25T18:08:19.744Z,9.30
2018-08-25T18:10:48.601Z,8.57
2018-08-25T18:13:17.485Z,8.63
2018-08-25T18:15:46.320Z,9.60
2018-08-25T18:18:15.169Z,7.83
2018-08-25T18:20:44.000Z,8.60
2018-08-25T18:23:12.857Z,12.63
2018-08-25T18:25:41.683Z,9.70
2018-08-25T18:28:10.543Z,9.77
2018-08-25T18:30:39.353Z,7.90
2018-08-25T18:33:08.417Z,8.03
2018-08-25T18:35:37.271Z,8.33
2018-08-25T18:38:06.166Z,13.50
2018-08-25T18:40:34.991Z,8.47
2018-08-25T18:43:03.857Z,8.53
2018-08-25T18:45:32.679Z,9.70
2018-08-25T18:48:01.516Z,8.57
2018-08-25T18:50:30.489Z,10.60
2018-08-25T18:52:59.310Z,8.47
2018-08-25T18:55:28.193Z,9.20
2018-08-25T18:57:57.125Z,13.00
2018-08-25T19:00:25.947Z,9.27
2018-08-25T19:02:54.775Z,9.30
2018-08-25T19:05:23.836Z,8.90
2018-08-25T19:07:52.664Z,13.17
2018-08-25T19:10:21.467Z,10.13
2018-08-25T19:12:50.348Z,11.83
2018-08-25T19:15:19.201Z,10.57
2018-08-25T19:17:48.104Z,11.83
2018-08-25T19:20:16.943Z,9.63
2018-08-25T19:22:45.747Z,10.27
2018-08-25T19:25:14.579Z,9.77
2018-08-25T19:27:43.395Z,10.63
2018-08-25T19:30:12.232Z,13.80
2018-08-25T19:32:41.133Z,8.90
2018-08-25T19:35:09.997Z,9.70
2018-08-25T19:37:38.852Z,10.97
2018-08-25T19:40:07.756Z,10.03
2018-08-25T19:42:36.761Z,9.83
2018-08-25T19:45:06.016Z,9.00
2018-08-25T19:47:34.864Z,12.30
2018-08-25T19:50:03.687Z,12.80
2018-08-25T19:52:32.513Z,10.47
2018-08-25T19:55:01.404Z,9.90
2018-08-25T19:57:30.369Z,13.47
2018-08-25T19:59:59.240Z,11.00
2018-08-25T20:02:28.143Z,10.03
2018-08-25T20:04:57.015Z,9.77
2018-08-25T20:07:25.839Z,7.83
2018-08-25T20:09:54.810Z,12.33
2018-08-25T20:12:23.644Z,12.20
2018-08-25T20:14:52.476Z,9.60
2018-08-25T20:17:21.324Z,12.10
2018-08-25T20:19:50.176Z,9.77
2018-08-25T20:22:19.020Z,9.77
2018-08-25T20:24:47.884Z,8.87
2018-08-25T20:27:16.699Z,11.77
2018-08-25T20:29:45.571Z,15.23
2018-08-25T20:32:14.396Z,12.80
2018-08-25T20:34:43.243Z,12.20
2018-08-25T20:37:12.119Z,10.17
2018-08-25T20:39:41.014Z,11.47
2018-08-25T20:42:09.852Z,9.30
2018-08-25T20:44:38.650Z,9.27
2018-08-25T20:47:07.462Z,9.90
2018-08-25T20:49:36.291Z,9.20
2018-08-25T20:52:05.108Z,11.63
2018-08-25T20:54:33.935Z,8.77
2018-08-25T20:57:02.760Z,10.33
2018-08-25T20:59:31.668Z,10.40
2018-08-25T21:02:00.581Z,11.20
2018-08-25T21:04:29.424Z,13.77
2018-08-25T21:06:58.328Z,8.30
2018-08-25T21:09:27.160Z,13.00
2018-08-25T21:11:56.002Z,9.50
2018-08-25T21:14:24.831Z,13.70
2018-08-25T21:16:53.663Z,9.70
2018-08-25T21:19:22.533Z,9.80
2018-08-25T21:21:51.331Z,9.83
2018-08-25T21:24:20.229Z,12.33
2018-08-25T21:26:49.068Z,9.50
2018-08-25T21:29:17.918Z,10.23
2018-08-25T21:31:46.764Z,9.77
2018-08-25T21:34:15.652Z,9.80
2018-08-25T21:36:44.525Z,13.30
2018-08-25T21:39:13.495Z,10.63
2018-08-25T21:41:42.600Z,13.57
2018-08-25T21:44:11.613Z,8.97
2018-08-25T21:46:40.509Z,10.43
2018-08-25T21:49:09.342Z,14.50
2018-08-25T21:51:38.210Z,12.93
2018-08-25T21:54:07.138Z,11.50
2018-08-25T21:56:35.950Z,9.80
2018-08-25T21:59:04.803Z,9.90
2018-08-25T22:01:39.079Z,13.23
2018-08-25T22:04:07.918Z,10.53
2018-08-25T22:06:36.779Z,10.00
2018-08-25T22:09:10.073Z,10.57
2018-08-25T22:11:38.960Z,11.93
2018-08-25T22:14:07.800Z,10.27
2018-08-25T22:16:36.655Z,14.00
2018-08-25T22:19:05.708Z,11.40
2018-08-25T22:21:34.585Z,8.60
2018-08-25T22:24:03.488Z,11.90
2018-08-25T22:26:32.424Z,12.03
2018-08-25T22:29:01.330Z,8.50
2018-08-25T22:31:30.139Z,9.67
2018-08-25T22:33:58.934Z,11.97
2018-08-25T22:36:27.762Z,9.70
2018-08-25T22:38:56.641Z,11.13
2018-08-25T22:41:25.567Z,10.40
2018-08-25T22:43:54.349Z,11.83
2018-08-25T22:46:23.204Z,8.83
2018-08-25T22:48:52.067Z,8.70
2018-08-25T22:51:21.168Z,11.10
2018-08-25T22:53:49.979Z,7.50
2018-08-25T22:56:18.792Z,8.47
2018-08-25T22:58:47.667Z,7.40
2018-08-25T23:01:16.574Z,9.13
2018-08-25T23:03:45.349Z,8.60
2018-08-25T23:06:14.248Z,11.03
2018-08-25T23:08:43.080Z,10.07
2018-08-25T23:11:11.962Z,7.03
2018-08-25T23:13:40.804Z,8.20
2018-08-25T23:16:09.708Z,8.50
2018-08-25T23:18:38.596Z,7.80
2018-08-25T23:21:07.429Z,9.90
2018-08-25T23:23:36.271Z,8.20
2018-08-25T23:26:05.279Z,8.93
2018-08-25T23:28:34.209Z,8.50
2018-08-25T23:31:03.086Z,8.20
2018-08-25T23:33:31.960Z,8.37
2018-08-25T23:36:00.806Z,8.53
2018-08-25T23:38:29.630Z,11.67
2018-08-25T23:41:09.240Z,9.87
2018-08-25T23:43:38.050Z,8.47
2018-08-25T23:46:06.953Z,8.20
2018-08-25T23:48:35.931Z,10.10
2018-08-25T23:51:04.829Z,7.70
2018-08-25T23:53:33.643Z,9.17
2018-08-25T23:56:02.600Z,8.13
2018-08-25T23:58:31.450Z,7.73
